createdAt,value
2023-02-20T00:01:11.335Z,48.72
2023-02-20T00:03:39.293Z,48.29
2023-02-20T00:06:07.589Z,47.63
2023-02-20T00:08:36.927Z,46.65
2023-02-20T00:11:04.860Z,46.62
2023-02-20T00:13:32.813Z,46.76
2023-02-20T00:16:00.984Z,45.68
2023-02-20T00:18:28.827Z,44.67
2023-02-20T00:20:56.726Z,44.58
2023-02-20T00:23:24.837Z,43.43
2023-02-20T00:25:54.174Z,44.08
2023-02-20T00:28:22.040Z,44.17
2023-02-20T00:30:50.200Z,43.37
2023-02-20T00:33:18.108Z,42.93
2023-02-20T00:35:46.057Z,42.91
2023-02-20T00:38:14.021Z,41.82
2023-02-20T00:40:42.221Z,41.37
2023-02-20T00:43:11.485Z,41.42
2023-02-20T00:45:39.419Z,40.78
2023-02-20T00:48:07.452Z,40.42
2023-02-20T00:50:35.357Z,40.51
2023-02-20T00:53:03.442Z,39.12
2023-02-20T00:55:31.637Z,38.96
2023-02-20T00:57:59.600Z,38.76
2023-02-20T01:00:30.237Z,38.87
2023-02-20T01:02:58.552Z,38.42
2023-02-20T01:05:26.670Z,38.55
2023-02-20T01:07:55.275Z,38.65
2023-02-20T01:10:23.212Z,38.17
2023-02-20T01:12:51.185Z,38.75
2023-02-20T01:15:19.265Z,38.79
2023-02-20T01:17:49.129Z,38.56
2023-02-20T01:20:17.354Z,38.90
2023-02-20T01:22:45.269Z,38.78
2023-02-20T01:25:13.190Z,38.56
2023-02-20T01:27:41.088Z,38.55
2023-02-20T01:30:10.203Z,38.64
2023-02-20T01:32:38.316Z,38.37
2023-02-20T01:35:08.439Z,38.78
2023-02-20T01:37:36.431Z,38.58
2023-02-20T01:40:04.452Z,38.08
2023-02-20T01:42:33.418Z,37.33
2023-02-20T01:45:16.786Z,37.14
2023-02-20T01:47:44.736Z,37.52
2023-02-20T01:50:14.396Z,37.79
2023-02-20T01:52:42.325Z,37.67
2023-02-20T01:55:11.966Z,37.65
2023-02-20T01:57:41.613Z,37.32
2023-02-20T02:00:11.101Z,36.79
2023-02-20T02:02:40.619Z,36.50
2023-02-20T02:05:09.345Z,36.08
2023-02-20T02:07:38.709Z,36.30
2023-02-20T02:10:10.439Z,36.65
2023-02-20T02:12:38.449Z,36.80
2023-02-20T02:15:14.246Z,37.08
2023-02-20T02:18:00.498Z,36.78
2023-02-20T02:21:00.235Z,37.40
2023-02-20T02:24:04.470Z,36.77
2023-02-20T02:26:47.763Z,36.48
2023-02-20T02:29:29.654Z,36.26
2023-02-20T02:32:21.495Z,35.81
2023-02-20T02:35:25.095Z,35.40
2023-02-20T02:37:57.670Z,35.41
2023-02-20T02:40:27.676Z,34.28
2023-02-20T02:43:00.113Z,34.02
2023-02-20T02:45:31.071Z,33.71
2023-02-20T02:48:01.525Z,34.73
2023-02-20T02:50:31.078Z,34.45
2023-02-20T02:53:00.442Z,33.67
2023-02-20T02:55:29.524Z,34.34
2023-02-20T02:57:57.500Z,34.35
2023-02-20T03:00:26.387Z,34.09
2023-02-20T03:02:57.445Z,34.26
2023-02-20T03:05:27.134Z,33.86
2023-02-20T03:07:55.989Z,33.60
2023-02-20T03:10:31.905Z,33.76
2023-02-20T03:13:02.820Z,32.81
2023-02-20T03:15:33.927Z,33.01
2023-02-20T03:18:10.748Z,32.49
2023-02-20T03:20:39.515Z,32.34
2023-02-20T03:23:07.692Z,32.36
2023-02-20T03:25:38.058Z,31.68
2023-02-20T03:28:07.677Z,31.65
2023-02-20T03:30:37.099Z,31.41
2023-02-20T03:33:25.325Z,31.17
2023-02-20T03:36:11.254Z,31.33
2023-02-20T03:38:57.455Z,30.90
2023-02-20T03:41:44.869Z,30.87
2023-02-20T03:44:14.480Z,31.05
2023-02-20T03:46:42.635Z,31.06
2023-02-20T03:49:30.345Z,30.72
2023-02-20T03:52:01.074Z,31.33
2023-02-20T03:54:29.322Z,31.17
2023-02-20T03:57:00.879Z,31.51
2023-02-20T03:59:30.627Z,31.48
2023-02-20T04:02:00.981Z,30.77
2023-02-20T04:04:31.955Z,31.10
2023-02-20T04:06:59.835Z,31.19
2023-02-20T04:09:28.740Z,32.01
2023-02-20T04:12:00.787Z,32.00
2023-02-20T04:14:29.058Z,32.19
2023-02-20T04:16:59.928Z,31.72
2023-02-20T04:19:27.789Z,31.97
2023-02-20T04:21:56.575Z,32.52
2023-02-20T04:24:25.423Z,32.48
2023-02-20T04:26:53.640Z,32.26
2023-02-20T04:29:22.907Z,33.24
2023-02-20T04:31:50.865Z,32.65
2023-02-20T04:34:18.789Z,33.81
2023-02-20T04:36:46.731Z,33.57
2023-02-20T04:39:14.666Z,33.46
2023-02-20T04:41:42.884Z,33.29
2023-02-20T04:44:28.659Z,33.01
2023-02-20T04:46:58.014Z,33.29
2023-02-20T04:49:25.938Z,33.43
2023-02-20T04:51:53.854Z,32.95
2023-02-20T04:54:21.867Z,33.40
2023-02-20T04:56:50.143Z,33.16
2023-02-20T04:59:18.078Z,32.47
2023-02-20T05:01:48.266Z,32.78
2023-02-20T05:04:17.791Z,33.10
2023-02-20T05:06:46.428Z,33.72
2023-02-20T05:09:14.573Z,33.93
2023-02-20T05:11:42.562Z,33.96
2023-02-20T05:14:10.554Z,34.00
2023-02-20T05:16:39.163Z,32.97
2023-02-20T05:19:07.167Z,33.50
2023-02-20T05:21:54.415Z,33.34
2023-02-20T05:24:22.372Z,33.12
2023-02-20T05:26:51.812Z,33.40
2023-02-20T05:29:21.183Z,33.39
2023-02-20T05:31:49.536Z,33.87
2023-02-20T05:34:17.519Z,33.74
2023-02-20T05:36:46.844Z,33.84
2023-02-20T05:39:14.802Z,34.08
2023-02-20T05:41:42.700Z,33.82
2023-02-20T05:44:10.741Z,34.47
2023-02-20T05:46:40.663Z,34.10
2023-02-20T05:49:08.677Z,34.31
2023-02-20T05:51:36.818Z,33.42
2023-02-20T05:54:06.373Z,34.07
2023-02-20T05:56:34.348Z,34.27
2023-02-20T05:59:02.438Z,34.61
2023-02-20T06:01:33.736Z,34.92
2023-02-20T06:04:02.500Z,35.06
2023-02-20T06:06:33.795Z,35.12
2023-02-20T06:09:01.710Z,35.82
2023-02-20T06:11:31.104Z,35.84
2023-02-20T06:13:58.978Z,35.28
2023-02-20T06:16:28.497Z,35.36
2023-02-20T06:18:56.558Z,35.92
2023-02-20T06:21:24.606Z,35.46
2023-02-20T06:23:53.410Z,35.63
2023-02-20T06:26:24.140Z,36.14
2023-02-20T06:28:54.451Z,36.03
2023-02-20T06:31:23.382Z,36.21
2023-02-20T06:33:51.382Z,35.89
2023-02-20T06:36:21.190Z,36.54
2023-02-20T06:38:49.298Z,36.54
2023-02-20T06:41:17.462Z,37.49
2023-02-20T06:43:45.416Z,37.97
2023-02-20T06:46:15.154Z,37.07
2023-02-20T06:48:46.535Z,37.17
2023-02-20T06:51:14.559Z,37.39
2023-02-20T06:53:42.601Z,38.43
2023-02-20T06:56:11.610Z,37.52
2023-02-20T06:58:39.677Z,38.84
2023-02-20T07:01:07.969Z,38.52
2023-02-20T07:03:37.378Z,39.05
2023-02-20T07:06:05.937Z,39.71
2023-02-20T07:08:34.589Z,39.47
2023-02-20T07:11:02.840Z,39.88
2023-02-20T07:13:30.666Z,41.00
2023-02-20T07:15:58.612Z,40.76
2023-02-20T07:18:27.314Z,41.21
2023-02-20T07:20:56.800Z,41.33
2023-02-20T07:23:24.850Z,41.73
2023-02-20T07:25:53.059Z,42.52
2023-02-20T07:28:21.496Z,43.37
2023-02-20T07:30:50.073Z,43.07
2023-02-20T07:33:18.423Z,45.61
2023-02-20T07:35:46.462Z,45.03
2023-02-20T07:38:15.759Z,44.71
2023-02-20T07:40:43.761Z,45.21
2023-02-20T07:43:11.697Z,44.84
2023-02-20T07:45:39.932Z,46.30
2023-02-20T07:48:08.135Z,44.73
2023-02-20T07:50:36.062Z,43.73
2023-02-20T07:53:03.946Z,44.43
2023-02-20T07:55:33.321Z,43.17
2023-02-20T07:58:01.235Z,43.79
2023-02-20T08:00:29.320Z,42.52
2023-02-20T08:02:59.502Z,43.47
2023-02-20T08:05:32.816Z,42.84
2023-02-20T08:08:07.057Z,42.13
2023-02-20T08:10:36.620Z,42.60
2023-02-20T08:13:04.541Z,41.62
2023-02-20T08:15:32.711Z,41.65
2023-02-20T08:18:00.910Z,41.14
2023-02-20T08:20:28.806Z,43.14
2023-02-20T08:22:56.710Z,43.71
2023-02-20T08:25:24.747Z,44.13
2023-02-20T08:27:54.198Z,44.92
2023-02-20T08:30:24.809Z,45.81
2023-02-20T08:32:53.007Z,46.81
2023-02-20T08:35:21.318Z,49.32
2023-02-20T08:37:49.317Z,49.85
2023-02-20T08:40:17.707Z,50.23
2023-02-20T08:42:45.996Z,52.28
2023-02-20T08:45:16.701Z,53.81
2023-02-20T08:47:44.655Z,56.26
2023-02-20T08:50:12.644Z,57.13
2023-02-20T08:52:40.663Z,56.02
2023-02-20T08:55:08.984Z,57.56
2023-02-20T08:57:37.292Z,58.87
2023-02-20T09:00:07.020Z,59.19
2023-02-20T09:02:36.416Z,58.79
2023-02-20T09:05:04.847Z,57.66
2023-02-20T09:07:32.739Z,57.58
2023-02-20T09:10:00.845Z,56.79
2023-02-20T09:12:29.182Z,58.56
2023-02-20T09:14:57.127Z,56.57
2023-02-20T09:17:25.075Z,55.64
2023-02-20T09:19:54.513Z,55.06
2023-02-20T09:22:23.878Z,56.25
2023-02-20T09:24:51.879Z,55.67
2023-02-20T09:27:20.273Z,55.67
2023-02-20T09:29:48.207Z,54.59
2023-02-20T09:32:16.284Z,52.60
2023-02-20T09:34:45.134Z,51.31
2023-02-20T09:37:15.558Z,51.43
2023-02-20T09:39:43.519Z,51.31
2023-02-20T09:42:21.792Z,52.45
2023-02-20T09:44:55.119Z,53.20
2023-02-20T09:47:31.890Z,54.04
2023-02-20T09:50:03.085Z,53.32
2023-02-20T09:52:33.511Z,53.64
2023-02-20T09:55:03.842Z,52.48
2023-02-20T09:57:32.806Z,51.68
2023-02-20T10:00:05.291Z,50.18
2023-02-20T10:02:35.827Z,48.59
2023-02-20T10:05:05.040Z,48.39
2023-02-20T10:07:35.261Z,47.75
2023-02-20T10:10:06.634Z,47.57
2023-02-20T10:12:37.088Z,49.32
2023-02-20T10:15:11.091Z,48.73
2023-02-20T10:17:43.333Z,48.27
2023-02-20T10:20:13.265Z,50.71
2023-02-20T10:22:47.018Z,49.00
2023-02-20T10:25:17.203Z,49.57
2023-02-20T10:27:56.044Z,48.20
2023-02-20T10:30:30.127Z,46.96
2023-02-20T10:33:00.451Z,46.09
2023-02-20T10:35:33.694Z,46.05
2023-02-20T10:38:05.673Z,45.26
2023-02-20T10:40:34.755Z,45.36
2023-02-20T10:43:04.109Z,45.51
2023-02-20T10:45:37.109Z,45.30
2023-02-20T10:48:06.460Z,44.33
2023-02-20T10:50:37.947Z,45.28
2023-02-20T10:53:12.164Z,47.40
2023-02-20T10:55:42.030Z,48.18
2023-02-20T10:58:12.171Z,47.36
2023-02-20T11:00:42.051Z,47.99
2023-02-20T11:03:13.250Z,48.92
2023-02-20T11:05:42.660Z,48.68
2023-02-20T11:08:11.945Z,47.97
2023-02-20T11:10:39.838Z,48.12
2023-02-20T11:13:09.852Z,46.80
2023-02-20T11:15:37.768Z,47.45
2023-02-20T11:18:07.054Z,47.70
2023-02-20T11:20:41.484Z,47.29
2023-02-20T11:23:10.259Z,48.10
2023-02-20T11:25:41.899Z,48.72
2023-02-20T11:28:11.401Z,47.68
2023-02-20T11:30:40.206Z,49.62
2023-02-20T11:33:12.306Z,49.60
2023-02-20T11:35:40.661Z,50.92
2023-02-20T11:38:31.000Z,52.63
2023-02-20T11:41:26.417Z,53.44
2023-02-20T11:44:25.386Z,54.29
2023-02-20T11:47:28.026Z,55.83
2023-02-20T11:50:19.657Z,54.45
2023-02-20T11:52:58.246Z,53.33
2023-02-20T11:55:27.786Z,53.62
2023-02-20T11:57:57.264Z,53.26
2023-02-20T12:00:25.650Z,53.12
2023-02-20T12:02:55.647Z,54.18
2023-02-20T12:05:24.019Z,52.78
2023-02-20T12:07:59.437Z,53.28
2023-02-20T12:10:36.198Z,52.62
2023-02-20T12:13:06.045Z,52.99
2023-02-20T12:15:33.934Z,52.62
2023-02-20T12:18:15.781Z,54.28
2023-02-20T12:20:47.305Z,52.44
2023-02-20T12:23:19.820Z,52.28
2023-02-20T12:25:57.054Z,51.98
2023-02-20T12:28:28.502Z,50.39
2023-02-20T12:31:04.026Z,50.00
2023-02-20T12:33:43.950Z,50.78
2023-02-20T12:36:16.378Z,50.88
2023-02-20T12:38:47.779Z,50.95
2023-02-20T12:41:25.388Z,50.90
2023-02-20T12:44:12.902Z,52.78
2023-02-20T12:46:45.233Z,51.83
2023-02-20T12:49:23.137Z,51.51
2023-02-20T12:51:53.049Z,52.14
2023-02-20T12:54:27.412Z,52.91
2023-02-20T12:57:01.129Z,52.83
2023-02-20T12:59:33.127Z,50.26
2023-02-20T13:02:04.720Z,50.59
2023-02-20T13:04:37.123Z,51.76
2023-02-20T13:07:06.817Z,52.15
2023-02-20T13:09:36.521Z,52.05
2023-02-20T13:12:06.347Z,52.50
2023-02-20T13:14:54.947Z,50.71
2023-02-20T13:17:30.835Z,50.30
2023-02-20T13:20:02.097Z,50.95
2023-02-20T13:22:30.056Z,49.69
2023-02-20T13:25:16.847Z,50.16
2023-02-20T13:27:45.403Z,48.87
2023-02-20T13:30:21.672Z,48.45
2023-02-20T13:32:50.285Z,47.58
2023-02-20T13:35:47.810Z,48.61
2023-02-20T13:38:17.168Z,48.40
2023-02-20T13:40:46.045Z,48.45
2023-02-20T13:43:35.047Z,50.00
2023-02-20T13:46:30.519Z,50.96
2023-02-20T13:48:58.473Z,49.56
2023-02-20T13:51:37.045Z,49.37
2023-02-20T13:54:27.887Z,47.99
2023-02-20T13:56:59.776Z,48.23
2023-02-20T13:59:28.347Z,46.97
2023-02-20T14:02:03.939Z,46.02
2023-02-20T14:04:32.298Z,45.43
2023-02-20T14:07:00.313Z,46.08
2023-02-20T14:09:31.740Z,47.24
2023-02-20T14:12:12.568Z,48.64
2023-02-20T14:14:42.467Z,49.33
2023-02-20T14:17:21.938Z,49.88
2023-02-20T14:19:51.804Z,50.66
2023-02-20T14:22:26.994Z,50.91
2023-02-20T14:25:27.535Z,50.76
2023-02-20T14:28:06.159Z,48.92
2023-02-20T14:30:34.130Z,47.97
2023-02-20T14:33:25.441Z,45.78
2023-02-20T14:36:02.084Z,45.59
2023-02-20T14:38:43.586Z,45.50
2023-02-20T14:41:24.496Z,46.76
2023-02-20T14:44:00.415Z,46.48
2023-02-20T14:46:29.579Z,44.02
2023-02-20T14:49:09.993Z,44.42
2023-02-20T14:51:38.106Z,44.50
2023-02-20T14:54:17.622Z,44.89
2023-02-20T14:56:46.133Z,43.67
2023-02-20T14:59:18.284Z,43.35
2023-02-20T15:01:46.329Z,43.63
2023-02-20T15:04:17.260Z,43.52
2023-02-20T15:06:47.752Z,42.63
2023-02-20T15:09:22.724Z,41.24
2023-02-20T15:11:52.706Z,41.27
2023-02-20T15:14:25.009Z,41.64
2023-02-20T15:17:07.952Z,40.79
2023-02-20T15:19:39.395Z,39.75
2023-02-20T15:22:07.897Z,39.04
2023-02-20T15:24:38.381Z,38.48
2023-02-20T15:27:14.747Z,37.91
2023-02-20T15:29:43.444Z,37.11
2023-02-20T15:32:20.788Z,36.93
2023-02-20T15:34:53.541Z,36.14
2023-02-20T15:37:30.214Z,36.08
2023-02-20T15:40:18.104Z,35.11
2023-02-20T15:42:52.103Z,32.50
2023-02-20T15:45:20.561Z,33.18
2023-02-20T15:51:36.828Z,32.03
2023-02-20T15:54:05.612Z,32.14
2023-02-20T15:56:34.691Z,32.09
2023-02-20T15:59:04.736Z,31.42
2023-02-20T16:01:32.862Z,31.18
2023-02-20T16:04:00.840Z,30.80
2023-02-20T16:06:29.114Z,29.62
2023-02-20T16:08:59.438Z,28.97
2023-02-20T16:11:33.472Z,28.24
2023-02-20T16:14:11.089Z,27.96
2023-02-20T16:16:40.464Z,26.99
2023-02-20T16:19:13.278Z,26.75
2023-02-20T16:21:50.060Z,26.50
2023-02-20T16:24:27.761Z,27.18
2023-02-20T16:27:00.289Z,27.30
2023-02-20T16:29:35.377Z,26.52
2023-02-20T16:32:23.350Z,27.08
2023-02-20T16:34:51.484Z,27.04
2023-02-20T16:37:20.099Z,27.03
2023-02-20T16:39:49.519Z,27.50
2023-02-20T16:42:28.554Z,27.61
2023-02-20T16:44:58.755Z,27.39
2023-02-20T16:47:29.033Z,28.46
2023-02-20T16:49:57.909Z,28.80
2023-02-20T16:52:27.080Z,27.72
2023-02-20T16:54:57.227Z,27.85
2023-02-20T16:57:25.193Z,28.19
2023-02-20T16:59:55.464Z,27.79
2023-02-20T17:02:24.746Z,27.17
2023-02-20T17:04:52.808Z,28.34
2023-02-20T17:07:21.122Z,27.84
2023-02-20T17:09:49.081Z,28.25
2023-02-20T17:12:19.449Z,28.09
2023-02-20T17:14:48.003Z,28.46
2023-02-20T17:17:16.120Z,27.04
2023-02-20T17:19:44.235Z,26.93
2023-02-20T17:22:12.549Z,27.40
2023-02-20T17:24:41.387Z,27.73
2023-02-20T17:27:09.388Z,27.51
2023-02-20T17:29:38.997Z,27.63
2023-02-20T17:32:07.730Z,27.77
2023-02-20T17:34:35.696Z,27.95
2023-02-20T17:37:09.350Z,27.57
2023-02-20T17:39:45.452Z,27.72
2023-02-20T17:42:13.820Z,27.83
2023-02-20T17:44:43.463Z,28.43
2023-02-20T17:47:11.678Z,28.23
2023-02-20T17:49:41.539Z,28.41
2023-02-20T17:52:10.037Z,28.53
2023-02-20T17:54:39.547Z,28.33
2023-02-20T17:57:07.448Z,28.12
2023-02-20T17:59:38.894Z,28.65
2023-02-20T18:02:08.681Z,28.32
2023-02-20T18:04:36.715Z,28.84
2023-02-20T18:07:04.725Z,28.46
2023-02-20T18:09:33.326Z,27.49
2023-02-20T18:12:01.380Z,27.45
2023-02-20T18:14:29.567Z,27.53
2023-02-20T18:16:57.808Z,27.69
2023-02-20T18:19:27.157Z,26.99
2023-02-20T18:21:55.254Z,27.11
2023-02-20T18:24:25.277Z,26.57
2023-02-20T18:26:53.316Z,26.10
2023-02-20T18:29:21.407Z,26.23
2023-02-20T18:31:49.602Z,25.76
2023-02-20T18:34:17.886Z,25.46
2023-02-20T18:36:47.197Z,25.51
2023-02-20T18:39:15.188Z,25.40
2023-02-20T18:41:43.060Z,26.08
2023-02-20T18:44:11.249Z,25.63
2023-02-20T18:46:39.854Z,25.04
2023-02-20T18:49:07.910Z,24.94
2023-02-20T18:51:36.851Z,25.27
2023-02-20T18:54:06.807Z,25.31
2023-02-20T18:56:36.419Z,25.71
2023-02-20T18:59:05.087Z,25.48
2023-02-20T19:01:33.937Z,25.32
2023-02-20T19:04:03.101Z,24.72
2023-02-20T19:06:33.140Z,24.88
2023-02-20T19:09:01.318Z,24.27
2023-02-20T19:11:30.825Z,23.78
2023-02-20T19:13:58.934Z,22.94
2023-02-20T19:16:27.510Z,22.90
2023-02-20T19:18:55.497Z,22.80
2023-02-20T19:21:23.555Z,23.01
2023-02-20T19:23:51.488Z,22.75
2023-02-20T19:26:19.477Z,22.55
2023-02-20T19:28:49.780Z,22.54
2023-02-20T19:31:18.232Z,22.84
2023-02-20T19:33:49.522Z,22.75
2023-02-20T19:36:17.617Z,22.71
2023-02-20T19:38:45.889Z,22.89
2023-02-20T19:41:14.578Z,22.81
2023-02-20T19:43:42.728Z,22.45
2023-02-20T19:46:16.757Z,22.02
2023-02-20T19:48:45.287Z,21.96
2023-02-20T19:51:13.314Z,22.32
2023-02-20T19:53:41.252Z,22.68
2023-02-20T19:56:09.413Z,21.96
2023-02-20T19:58:39.991Z,22.25
2023-02-20T20:01:08.160Z,21.98
2023-02-20T20:03:37.545Z,22.15
2023-02-20T20:06:08.527Z,21.76
2023-02-20T20:08:40.196Z,22.06
2023-02-20T20:11:08.305Z,21.15
2023-02-20T20:13:36.739Z,20.40
2023-02-20T20:16:04.842Z,20.59
2023-02-20T20:18:32.794Z,20.57
2023-02-20T20:21:02.409Z,20.70
2023-02-20T20:23:30.372Z,21.16
2023-02-20T20:25:58.274Z,21.71
2023-02-20T20:28:26.582Z,21.28
2023-02-20T20:30:54.659Z,21.48
2023-02-20T20:33:22.737Z,21.15
2023-02-20T20:35:51.000Z,21.44
2023-02-20T20:38:20.292Z,21.41
2023-02-20T20:40:48.508Z,21.43
2023-02-20T20:43:16.844Z,21.99
2023-02-20T20:45:44.771Z,22.06
2023-02-20T20:48:12.842Z,22.35
2023-02-20T20:50:41.073Z,21.72
2023-02-20T20:53:09.507Z,21.44
2023-02-20T20:55:39.340Z,21.50
2023-02-20T20:58:07.646Z,21.81
2023-02-20T21:00:36.493Z,21.74
2023-02-20T21:03:05.278Z,21.60
2023-02-20T21:05:34.306Z,21.67
2023-02-20T21:08:03.001Z,21.45
2023-02-20T21:10:31.195Z,20.86
2023-02-20T21:13:00.792Z,21.03
2023-02-20T21:15:29.681Z,20.90
2023-02-20T21:17:57.874Z,21.07
2023-02-20T21:20:27.115Z,20.96
2023-02-20T21:22:55.577Z,20.49
2023-02-20T21:25:25.240Z,20.62
2023-02-20T21:27:53.703Z,20.98
2023-02-20T21:30:24.409Z,21.31
2023-02-20T21:32:52.839Z,21.12
2023-02-20T21:35:21.790Z,20.60
2023-02-20T21:37:50.258Z,21.07
2023-02-20T21:40:18.508Z,21.19
2023-02-20T21:43:03.851Z,21.16
2023-02-20T21:45:36.492Z,20.81
2023-02-20T21:48:05.560Z,20.94
2023-02-20T21:50:33.829Z,21.29
2023-02-20T21:53:02.471Z,21.66
2023-02-20T21:55:30.541Z,21.49
2023-02-20T21:58:03.568Z,21.52
2023-02-20T22:00:32.234Z,22.33
2023-02-20T22:02:59.287Z,22.26
2023-02-20T22:05:26.462Z,22.00
2023-02-20T22:08:12.065Z,22.90
2023-02-20T22:10:57.741Z,22.90
2023-02-20T22:13:44.008Z,22.73
2023-02-20T22:16:35.854Z,22.75
2023-02-20T22:19:21.355Z,22.32
2023-02-20T22:22:06.469Z,22.13
2023-02-20T22:24:53.881Z,22.22
2023-02-20T22:27:39.383Z,22.48
2023-02-20T22:30:25.568Z,22.03
2023-02-20T22:33:13.030Z,21.75
2023-02-20T22:35:58.598Z,21.40
2023-02-20T22:38:44.720Z,21.70
2023-02-20T22:41:30.028Z,22.04
2023-02-20T22:44:15.781Z,21.44
2023-02-20T22:47:01.218Z,21.88
2023-02-20T22:49:48.448Z,22.22
2023-02-20T22:52:33.899Z,21.82
2023-02-20T22:55:19.569Z,20.93
2023-02-20T22:58:05.154Z,20.47
2023-02-20T23:00:50.989Z,20.19
2023-02-20T23:03:36.958Z,20.40
2023-02-20T23:06:24.546Z,20.48
2023-02-20T23:09:09.609Z,20.88
2023-02-20T23:11:55.962Z,20.70
2023-02-20T23:14:41.601Z,20.92
2023-02-20T23:17:37.213Z,20.82
2023-02-20T23:20:24.072Z,20.96
2023-02-20T23:23:11.191Z,21.25
2023-02-20T23:25:56.639Z,21.34
2023-02-20T23:28:42.186Z,21.47
2023-02-20T23:31:27.688Z,21.09
2023-02-20T23:34:13.124Z,21.08
2023-02-20T23:36:58.635Z,20.60
2023-02-20T23:39:45.543Z,20.66
2023-02-20T23:42:30.867Z,20.80
2023-02-20T23:45:16.739Z,21.43
2023-02-20T23:48:02.140Z,20.99
2023-02-20T23:50:47.905Z,21.19
2023-02-20T23:53:33.217Z,21.24
2023-02-20T23:56:20.506Z,20.56
2023-02-20T23:59:06.370Z,20.59
